Lismore Airport
YLIS : now visible

Airfield :











YOU CAN JOIN US ON...

 
LOGIN :

Register | Disclaimer

   EN    FR    IT 

 









Legend :    VFR   Marginal VFR   IFR   Intensive IFR   Very Intensive IFR
Visi :
Ceiling :
>= 8 km
>= 3000ft
5 to 8 km
1000 to 3000 ft
1500m to 5 km
500 to 1000 ft
800 to 1500m
200 to 500 ft
< 800m
< 200 ft
Symbols :   Thunderstorms  Fog  Heavy snow  Heavy precipitations  Wind > 20 kt






- Airport Elevation : 35 ft
- IATA code : LSY


YLIS - Lismore

CURRENT METAR :
  • 181900Z AUTO 00000KT 0700 FG BKN001 OVC064 10/09 Q1027

EXPIRED METARs :
  • 181859Z AUTO 00000KT 0900 FG BKN002 OVC064 10/09 Q1027
  • 181853Z AUTO 00000KT 2800 BR BKN001 OVC066 10/09 Q1027
  • 181830Z AUTO 00000KT 0200 FG SCT002 OVC068 10/10 Q1027
  • 181816Z AUTO 01002KT 0800 FG OVC066 10/09 Q1027
  • 181811Z AUTO 01001KT 3400 BR OVC066 10/09 Q1027
  • 181731Z AUTO 01002KT 9999 // SCT001 OVC064 11/10 Q1027
  • 181707Z AUTO 00000KT 1100 BR SCT001 SCT012 BKN054 10/10 Q1027
  • 181630Z AUTO 00000KT 0600 FG SCT001 SCT045 BKN052 11/10 Q1026
  • 181627Z AUTO 00000KT 0800 FG SCT001 SCT045 BKN052 11/10 Q1026
  • 181612Z AUTO 00000KT 4900 BR SCT040 SCT044 BKN069 11/10 Q1027

TAF N/A
YBBB FIR / Oceania



MET'MAP, your aeronautical weather chart ! - Copyright ORBIFLY December 2007 - Disclaimer

ORBIFLY MET'MAP TEAM :

Programming & Development : Alexandra Zaïnal
Concept & original design : Baudouin d'Aumeries
Assistance for programming : Marc-Olivier Méhu
Technical & hardware support : Manuel Goepfert

Contact : metmap@orbifly.com




SOURCES & CREDITS :

   NOAA       Earth
Advisory